Deer Mountain, Utah
Current Conditions -  °F | °C
As of 4:53 AM on Sunday 25 Jan 2015 (Local Time) from KEVW Reporting Station
Few Clouds Few Clouds  
Wind Chill: 22°   Ceiling: Unl
Heat Index: 30°   Visibility: 10mi
Dew Point: 27°   Wind: 8mph
Humidity: 88%   Direction: 200°SSW
Pressure: 30.42"   Gusts: NA
Location:  40.8065°N, 110.723°W
Report Text: KEVW 251153Z AUTO 20007KT 10SM FEW008 M01/M03 A3042 RMK AO2 SLP308 T10111028 11006 21033 52002
Loading
Personal Weather Stations






























Interactive Weather Map New forecast layout! Learn more

10-Day Weather Forecast

Advertisements
Track Severe Weather on mobile